createdAt,value
2022-11-06T00:00:01.259Z,11.37
2022-11-06T00:00:33.578Z,11.37
2022-11-06T00:01:07.348Z,11.37
2022-11-06T00:01:39.383Z,11.36
2022-11-06T00:02:13.673Z,11.37
2022-11-06T00:02:49.321Z,11.36
2022-11-06T00:03:21.927Z,11.36
2022-11-06T00:03:54.687Z,11.36
2022-11-06T00:04:29.469Z,11.36
2022-11-06T00:05:21.167Z,11.36
2022-11-06T00:06:11.576Z,11.36
2022-11-06T00:06:49.530Z,11.36
2022-11-06T00:07:21.419Z,11.37
2022-11-06T00:07:53.403Z,11.39
2022-11-06T00:08:34.097Z,11.38
2022-11-06T00:09:09.106Z,11.39
2022-11-06T00:09:40.970Z,11.39
2022-11-06T00:10:14.428Z,11.39
2022-11-06T00:10:46.452Z,11.39
2022-11-06T00:11:18.485Z,11.40
2022-11-06T00:11:50.906Z,11.41
2022-11-06T00:12:22.910Z,11.39
2022-11-06T00:12:54.837Z,11.40
2022-11-06T00:13:27.267Z,11.40
2022-11-06T00:14:01.089Z,11.40
2022-11-06T00:14:33.079Z,11.40
2022-11-06T00:15:06.617Z,11.40
2022-11-06T00:15:38.495Z,11.40
2022-11-06T00:16:12.256Z,11.40
2022-11-06T00:16:45.471Z,11.40
2022-11-06T00:17:17.468Z,11.39
2022-11-06T00:17:50.371Z,11.39
2022-11-06T00:18:25.576Z,11.39
2022-11-06T00:19:01.331Z,11.39
2022-11-06T00:19:33.393Z,11.39
2022-11-06T00:20:07.081Z,11.39
2022-11-06T00:20:39.102Z,11.39
2022-11-06T00:21:18.742Z,11.39
2022-11-06T00:21:50.650Z,11.38
2022-11-06T00:22:22.589Z,11.38
2022-11-06T00:22:54.601Z,11.38
2022-11-06T00:23:26.512Z,11.39
2022-11-06T00:24:00.791Z,11.40
2022-11-06T00:24:32.873Z,11.38
2022-11-06T00:25:06.697Z,11.39
2022-11-06T00:25:41.893Z,11.39
2022-11-06T00:26:20.090Z,11.38
2022-11-06T00:26:54.600Z,11.38
2022-11-06T00:27:27.458Z,11.38
2022-11-06T00:27:59.188Z,11.38
2022-11-06T00:28:31.369Z,11.38
2022-11-06T00:29:05.342Z,11.38
2022-11-06T00:29:37.474Z,11.39
2022-11-06T00:30:11.233Z,11.39
2022-11-06T00:30:43.211Z,11.39
2022-11-06T00:31:23.873Z,11.39
2022-11-06T00:31:55.619Z,11.39
2022-11-06T00:32:27.564Z,11.40
2022-11-06T00:32:59.422Z,11.40
2022-11-06T00:33:31.396Z,11.40
2022-11-06T00:34:06.976Z,11.41
2022-11-06T00:34:38.877Z,11.41
2022-11-06T00:35:10.753Z,11.41
2022-11-06T00:35:42.593Z,11.41
2022-11-06T00:36:22.292Z,11.42
2022-11-06T00:36:54.238Z,11.42
2022-11-06T00:37:26.116Z,11.42
2022-11-06T00:37:58.127Z,11.43
2022-11-06T00:38:30.165Z,11.44
2022-11-06T00:39:03.241Z,11.44
2022-11-06T00:39:35.425Z,11.44
2022-11-06T00:40:07.720Z,11.44
2022-11-06T00:40:39.497Z,11.45
2022-11-06T00:41:14.459Z,11.45
2022-11-06T00:41:46.287Z,11.45
2022-11-06T00:42:18.177Z,11.46
2022-11-06T00:42:53.908Z,11.46
2022-11-06T00:43:25.733Z,11.47
2022-11-06T00:43:59.865Z,11.47
2022-11-06T00:44:31.855Z,11.47
2022-11-06T00:45:03.880Z,11.47
2022-11-06T00:45:35.828Z,11.47
2022-11-06T00:46:12.567Z,11.47
2022-11-06T00:46:44.315Z,11.47
2022-11-06T00:47:16.063Z,11.47
2022-11-06T00:47:47.938Z,11.47
2022-11-06T00:48:19.862Z,11.47
2022-11-06T00:48:53.276Z,11.47
2022-11-06T00:49:25.094Z,11.46
2022-11-06T00:49:57.008Z,11.47
2022-11-06T00:50:28.869Z,11.47
2022-11-06T00:51:19.728Z,11.47
2022-11-06T00:51:51.580Z,11.46
2022-11-06T00:52:23.525Z,11.46
2022-11-06T00:52:55.451Z,11.47
2022-11-06T00:53:27.264Z,11.47
2022-11-06T00:54:02.028Z,11.47
2022-11-06T00:54:33.864Z,11.47
2022-11-06T00:55:05.873Z,11.47
2022-11-06T00:55:37.712Z,11.47
2022-11-06T00:56:13.779Z,11.47
2022-11-06T00:56:45.591Z,11.47
2022-11-06T00:57:17.476Z,11.48
2022-11-06T00:57:49.475Z,11.47
2022-11-06T00:58:21.379Z,11.46
2022-11-06T00:58:54.741Z,11.47
2022-11-06T00:59:26.772Z,11.46
2022-11-06T00:59:58.619Z,11.46
2022-11-06T01:00:30.572Z,11.46
2022-11-06T01:01:30.489Z,11.44
2022-11-06T01:02:02.637Z,11.45
2022-11-06T01:02:34.868Z,11.44
2022-11-06T01:03:06.943Z,11.45
2022-11-06T01:03:40.212Z,11.44
2022-11-06T01:04:18.761Z,11.45
2022-11-06T01:04:50.610Z,11.45
2022-11-06T01:05:22.585Z,11.45
2022-11-06T01:05:54.548Z,11.45
2022-11-06T01:06:33.481Z,11.45
2022-11-06T01:07:05.366Z,11.45
2022-11-06T01:07:37.225Z,11.46
2022-11-06T01:08:10.377Z,11.46
2022-11-06T01:08:43.868Z,11.46
2022-11-06T01:09:18.355Z,11.46
2022-11-06T01:09:50.603Z,11.46
2022-11-06T01:10:22.693Z,11.47
2022-11-06T01:10:54.642Z,11.46
2022-11-06T01:11:52.459Z,11.47
2022-11-06T01:12:24.817Z,11.46
2022-11-06T01:12:56.673Z,11.46
2022-11-06T01:13:28.553Z,11.46
2022-11-06T01:14:04.667Z,11.47
2022-11-06T01:14:39.607Z,11.47
2022-11-06T01:15:11.624Z,11.48
2022-11-06T01:15:43.470Z,11.47
2022-11-06T01:16:15.701Z,11.47
2022-11-06T01:16:47.839Z,11.47
2022-11-06T01:17:21.816Z,11.47
2022-11-06T01:17:53.782Z,11.47
2022-11-06T01:18:25.560Z,11.47
2022-11-06T01:18:59.009Z,11.47
2022-11-06T01:19:31.097Z,11.46
2022-11-06T01:20:04.565Z,11.46
2022-11-06T01:20:37.336Z,11.46
2022-11-06T01:21:21.059Z,11.46
2022-11-06T01:21:53.878Z,11.45
2022-11-06T01:22:25.805Z,11.46
2022-11-06T01:22:57.604Z,11.45
2022-11-06T01:23:29.700Z,11.46
2022-11-06T01:24:07.910Z,11.45
2022-11-06T01:24:39.986Z,11.46
2022-11-06T01:25:11.996Z,11.45
2022-11-06T01:25:43.784Z,11.46
2022-11-06T01:26:21.174Z,11.46
2022-11-06T01:27:53.344Z,11.46
2022-11-06T01:28:26.147Z,11.46
2022-11-06T01:28:58.086Z,11.47
2022-11-06T01:29:30.124Z,11.47
2022-11-06T01:30:02.128Z,11.47
2022-11-06T01:30:37.056Z,11.48
2022-11-06T01:31:14.473Z,11.47
2022-11-06T01:31:49.341Z,11.48
2022-11-06T01:32:21.454Z,11.48
2022-11-06T01:32:53.318Z,11.47
2022-11-06T01:33:25.159Z,11.48
2022-11-06T01:33:58.482Z,11.48
2022-11-06T01:34:30.324Z,11.48
2022-11-06T01:35:02.179Z,11.48
2022-11-06T01:35:33.931Z,11.48
2022-11-06T01:36:08.486Z,11.48
2022-11-06T01:36:40.775Z,11.48
2022-11-06T01:37:14.726Z,11.47
2022-11-06T01:37:46.733Z,11.47
2022-11-06T01:38:18.546Z,11.46
2022-11-06T01:38:52.518Z,11.46
2022-11-06T01:39:24.419Z,11.45
2022-11-06T01:39:56.218Z,11.45
2022-11-06T01:40:28.097Z,11.44
2022-11-06T01:41:00.692Z,11.43
2022-11-06T01:41:45.123Z,11.43
2022-11-06T01:42:20.391Z,11.41
2022-11-06T01:42:52.311Z,11.40
2022-11-06T01:43:46.086Z,11.39
2022-11-06T01:44:33.107Z,11.37
2022-11-06T01:45:31.223Z,11.36
2022-11-06T01:46:03.066Z,11.34
2022-11-06T01:46:36.315Z,11.33
2022-11-06T01:47:37.272Z,11.34
2022-11-06T01:48:10.059Z,11.32
2022-11-06T01:48:45.817Z,11.32
2022-11-06T01:49:18.605Z,11.31
2022-11-06T01:49:54.878Z,11.31
2022-11-06T01:50:26.988Z,11.31
2022-11-06T01:50:59.021Z,11.31
2022-11-06T01:51:36.512Z,11.31
2022-11-06T01:52:11.211Z,11.30
2022-11-06T01:52:45.586Z,11.29
2022-11-06T01:53:17.874Z,11.29
2022-11-06T01:53:50.943Z,11.29
2022-11-06T01:54:25.066Z,11.29
2022-11-06T01:55:10.572Z,11.28
2022-11-06T01:55:45.643Z,11.27
2022-11-06T01:56:18.832Z,11.27
2022-11-06T01:56:54.003Z,11.27
2022-11-06T01:57:26.010Z,11.27
2022-11-06T01:58:01.387Z,11.26
2022-11-06T01:58:36.043Z,11.26
2022-11-06T01:59:12.710Z,11.25
2022-11-06T01:59:45.801Z,11.26
2022-11-06T02:00:19.502Z,11.26
2022-11-06T02:00:51.411Z,11.26
2022-11-06T02:01:23.552Z,11.26
2022-11-06T02:01:55.785Z,11.26
2022-11-06T02:02:27.897Z,11.25
2022-11-06T02:03:00.998Z,11.26
2022-11-06T02:03:34.243Z,11.26
2022-11-06T02:04:15.311Z,11.26
2022-11-06T02:04:48.595Z,11.26
2022-11-06T02:05:20.426Z,11.26
2022-11-06T02:05:53.070Z,11.26
2022-11-06T02:06:25.502Z,11.26
2022-11-06T02:06:58.812Z,11.27
2022-11-06T02:07:31.953Z,11.27
2022-11-06T02:08:04.997Z,11.26
2022-11-06T02:08:36.937Z,11.26
2022-11-06T02:09:11.721Z,11.25
2022-11-06T02:09:43.948Z,11.25
2022-11-06T02:10:16.262Z,11.26
2022-11-06T02:10:49.082Z,11.25
2022-11-06T02:11:21.255Z,11.26
2022-11-06T02:12:02.499Z,11.25
2022-11-06T02:12:49.465Z,11.26
2022-11-06T02:13:41.571Z,11.25
2022-11-06T02:14:13.522Z,11.25
2022-11-06T02:14:54.709Z,11.26
2022-11-06T02:15:38.073Z,11.26
2022-11-06T02:16:21.377Z,11.26
2022-11-06T02:17:22.141Z,11.27
2022-11-06T02:18:21.500Z,11.26
2022-11-06T02:19:11.839Z,11.27
2022-11-06T02:20:02.134Z,11.27
2022-11-06T02:20:52.124Z,11.29
2022-11-06T02:21:29.912Z,11.29
2022-11-06T02:22:31.413Z,11.30
2022-11-06T02:23:22.135Z,11.30
2022-11-06T02:24:24.576Z,11.30
2022-11-06T02:25:07.581Z,11.30
2022-11-06T02:26:00.752Z,11.31
2022-11-06T02:27:06.474Z,11.31
2022-11-06T02:27:44.678Z,11.30
2022-11-06T02:28:35.104Z,11.31
2022-11-06T02:29:19.003Z,11.31
2022-11-06T02:30:07.360Z,11.31
2022-11-06T02:30:45.385Z,11.31
2022-11-06T02:31:24.667Z,11.32
2022-11-06T02:32:00.061Z,11.32
2022-11-06T02:32:43.854Z,11.33
2022-11-06T02:33:21.053Z,11.33
2022-11-06T02:34:00.601Z,11.33
2022-11-06T02:34:35.355Z,11.33
2022-11-06T02:35:25.418Z,11.32
2022-11-06T02:36:05.508Z,11.33
2022-11-06T02:36:43.295Z,11.32
2022-11-06T02:37:19.079Z,11.33
2022-11-06T02:37:57.903Z,11.34
2022-11-06T02:38:37.815Z,11.33
2022-11-06T02:39:14.794Z,11.33
2022-11-06T02:39:49.246Z,11.34
2022-11-06T02:40:24.541Z,11.34
2022-11-06T02:41:00.738Z,11.34
2022-11-06T02:41:37.074Z,11.34
2022-11-06T02:42:11.747Z,11.34
2022-11-06T02:42:48.859Z,11.34
2022-11-06T02:43:28.028Z,11.33
2022-11-06T02:44:02.745Z,11.34
2022-11-06T02:44:38.008Z,11.34
2022-11-06T02:45:12.411Z,11.34
2022-11-06T02:46:05.997Z,11.34
2022-11-06T02:46:43.183Z,11.34
2022-11-06T02:47:18.015Z,11.34
2022-11-06T02:47:54.186Z,11.34
2022-11-06T02:48:31.967Z,11.34
2022-11-06T02:49:20.556Z,11.34
2022-11-06T02:50:10.702Z,11.35
2022-11-06T02:50:45.672Z,11.35
2022-11-06T02:51:23.350Z,11.35
2022-11-06T02:52:07.961Z,11.36
2022-11-06T02:52:45.733Z,11.37
2022-11-06T02:53:23.258Z,11.36
2022-11-06T02:54:00.547Z,11.38
2022-11-06T02:54:37.814Z,11.38
2022-11-06T02:55:13.589Z,11.39
2022-11-06T02:55:51.605Z,11.39
2022-11-06T02:56:27.773Z,11.39
2022-11-06T02:57:06.987Z,11.39
2022-11-06T02:57:44.885Z,11.39
2022-11-06T02:58:21.286Z,11.40
2022-11-06T02:59:22.806Z,11.41
2022-11-06T02:59:57.238Z,11.41
2022-11-06T03:00:31.674Z,11.42
2022-11-06T03:01:12.968Z,11.42
2022-11-06T03:01:51.700Z,11.42
2022-11-06T03:02:58.906Z,11.43
2022-11-06T03:03:34.376Z,11.43
2022-11-06T03:04:22.613Z,11.43
2022-11-06T03:05:19.485Z,11.44
2022-11-06T03:06:13.488Z,11.44
2022-11-06T03:06:53.641Z,11.45
2022-11-06T03:07:39.612Z,11.46
2022-11-06T03:08:31.071Z,11.47
2022-11-06T03:09:15.061Z,11.48
2022-11-06T03:09:48.505Z,11.49
2022-11-06T03:10:22.904Z,11.49
2022-11-06T03:11:16.865Z,11.50
2022-11-06T03:12:12.714Z,11.51
2022-11-06T03:12:55.544Z,11.51
2022-11-06T03:13:38.412Z,11.51
2022-11-06T03:14:19.216Z,11.53
2022-11-06T03:14:59.723Z,11.53
2022-11-06T03:15:33.737Z,11.51
2022-11-06T03:16:34.925Z,11.52
2022-11-06T03:17:22.905Z,11.53
2022-11-06T03:18:02.069Z,11.54
2022-11-06T03:18:51.913Z,11.55
2022-11-06T03:19:52.941Z,11.55
2022-11-06T03:20:33.981Z,11.55
2022-11-06T03:21:26.741Z,11.55
2022-11-06T03:22:08.416Z,11.55
2022-11-06T03:23:05.304Z,11.55
2022-11-06T03:23:48.057Z,11.55
2022-11-06T03:24:30.884Z,11.54
2022-11-06T03:25:05.844Z,11.54
2022-11-06T03:25:43.210Z,11.54
2022-11-06T03:26:19.702Z,11.54
2022-11-06T03:26:53.133Z,11.54
2022-11-06T03:27:50.768Z,11.55
2022-11-06T03:28:31.959Z,11.54
2022-11-06T03:29:33.231Z,11.54
2022-11-06T03:30:12.561Z,11.53
2022-11-06T03:30:52.819Z,11.53
2022-11-06T03:31:32.439Z,11.55
2022-11-06T03:32:15.490Z,11.55
2022-11-06T03:32:53.600Z,11.55
2022-11-06T03:33:45.576Z,11.55
2022-11-06T03:34:50.352Z,11.55
2022-11-06T03:35:45.539Z,11.55
2022-11-06T03:36:23.035Z,11.55
2022-11-06T03:37:11.525Z,11.57
2022-11-06T03:38:00.298Z,11.57
2022-11-06T03:38:43.919Z,11.57
2022-11-06T03:39:28.506Z,11.58
2022-11-06T03:40:05.356Z,11.59
2022-11-06T03:40:43.282Z,11.59
2022-11-06T03:41:23.664Z,11.59
2022-11-06T03:42:03.159Z,11.59
2022-11-06T03:42:38.294Z,11.60
2022-11-06T03:43:14.836Z,11.60
2022-11-06T03:43:48.993Z,11.59
2022-11-06T03:44:27.617Z,11.60
2022-11-06T03:45:04.224Z,11.60
2022-11-06T03:45:40.072Z,11.60
2022-11-06T03:46:21.517Z,11.61
2022-11-06T03:47:27.297Z,11.60
2022-11-06T03:48:04.814Z,11.59
2022-11-06T03:48:41.905Z,11.61
2022-11-06T03:49:21.287Z,11.60
2022-11-06T03:50:39.307Z,11.61
2022-11-06T03:51:20.473Z,11.59
2022-11-06T03:51:59.117Z,11.61
2022-11-06T03:52:38.933Z,11.60
2022-11-06T03:53:30.159Z,11.60
2022-11-06T03:54:06.511Z,11.60
2022-11-06T03:54:47.318Z,11.58
2022-11-06T03:55:25.503Z,11.59
2022-11-06T03:56:14.473Z,11.60
2022-11-06T03:57:18.905Z,11.60
2022-11-06T03:57:56.871Z,11.60
2022-11-06T03:58:35.331Z,11.60
2022-11-06T03:59:09.025Z,11.61
2022-11-06T03:59:49.335Z,11.62
2022-11-06T04:00:21.270Z,11.61
2022-11-06T04:00:55.634Z,11.61
2022-11-06T04:01:32.971Z,11.60
2022-11-06T04:02:05.265Z,11.60
2022-11-06T04:02:43.129Z,11.60
2022-11-06T04:03:29.589Z,11.60
2022-11-06T04:04:04.418Z,11.59
2022-11-06T04:05:06.369Z,11.58
2022-11-06T04:05:43.821Z,11.58
2022-11-06T04:06:36.282Z,11.58
2022-11-06T04:07:13.528Z,11.57
2022-11-06T04:08:07.953Z,11.58
2022-11-06T04:08:59.704Z,11.58
2022-11-06T04:09:53.501Z,11.58
2022-11-06T04:10:43.825Z,11.58
2022-11-06T04:11:36.667Z,11.58
2022-11-06T04:12:30.164Z,11.57
2022-11-06T04:13:25.184Z,11.58
2022-11-06T04:14:02.146Z,11.58
2022-11-06T04:14:37.557Z,11.58
2022-11-06T04:15:14.304Z,11.59
2022-11-06T04:15:51.811Z,11.59
2022-11-06T04:16:31.588Z,11.58
2022-11-06T04:17:06.684Z,11.58
2022-11-06T04:17:40.430Z,11.59
2022-11-06T04:18:14.030Z,11.58
2022-11-06T04:18:46.285Z,11.59
2022-11-06T04:19:20.957Z,11.58
2022-11-06T04:19:58.544Z,11.58
2022-11-06T04:20:58.853Z,11.57
2022-11-06T04:21:49.077Z,11.56
2022-11-06T04:22:39.435Z,11.56
2022-11-06T04:23:24.057Z,11.57
2022-11-06T04:24:45.242Z,11.57
2022-11-06T04:25:41.363Z,11.56
2022-11-06T04:26:35.294Z,11.57
2022-11-06T04:27:44.410Z,11.57
2022-11-06T04:28:32.383Z,11.58
2022-11-06T04:29:29.139Z,11.59
2022-11-06T04:30:10.901Z,11.60
2022-11-06T04:31:16.747Z,11.59
2022-11-06T04:31:53.434Z,11.60
2022-11-06T04:32:43.433Z,11.61
2022-11-06T04:33:24.200Z,11.60
2022-11-06T04:33:59.100Z,11.61
2022-11-06T04:34:36.219Z,11.61
2022-11-06T04:35:20.647Z,11.62
2022-11-06T04:36:01.197Z,11.61
2022-11-06T04:37:11.473Z,11.61
2022-11-06T04:38:10.076Z,11.60
2022-11-06T04:39:06.068Z,11.60
2022-11-06T04:39:56.257Z,11.60
2022-11-06T04:41:14.250Z,11.60
2022-11-06T04:41:54.803Z,11.60
2022-11-06T04:42:45.600Z,11.61
2022-11-06T04:43:33.233Z,11.61
2022-11-06T04:44:33.644Z,11.61
2022-11-06T04:45:35.824Z,11.61
2022-11-06T04:46:11.843Z,11.62
2022-11-06T04:46:48.789Z,11.63
2022-11-06T04:47:22.786Z,11.63
2022-11-06T04:47:55.382Z,11.63
2022-11-06T04:48:28.089Z,11.63
2022-11-06T04:49:02.791Z,11.64
2022-11-06T04:49:38.708Z,11.64
2022-11-06T04:50:13.040Z,11.64
2022-11-06T04:50:51.361Z,11.63
2022-11-06T04:51:29.560Z,11.62
2022-11-06T04:52:09.416Z,11.62
2022-11-06T04:52:43.146Z,11.62
2022-11-06T04:53:18.261Z,11.62
2022-11-06T04:53:52.204Z,11.61
2022-11-06T04:54:24.833Z,11.61
2022-11-06T04:54:58.831Z,11.60
2022-11-06T04:55:31.181Z,11.60
2022-11-06T04:56:10.764Z,11.60
2022-11-06T04:56:46.095Z,11.60
2022-11-06T04:57:18.595Z,11.60
2022-11-06T04:57:50.757Z,11.59
2022-11-06T04:58:22.724Z,11.59
2022-11-06T04:58:54.747Z,11.59
2022-11-06T04:59:27.944Z,11.59
2022-11-06T05:00:00.019Z,11.58
2022-11-06T05:00:32.024Z,11.57
2022-11-06T05:01:04.803Z,11.58
2022-11-06T05:01:36.850Z,11.58
2022-11-06T05:02:10.810Z,11.58
2022-11-06T05:02:42.851Z,11.57
2022-11-06T05:03:16.149Z,11.57
2022-11-06T05:03:48.021Z,11.57
2022-11-06T05:04:19.931Z,11.58
2022-11-06T05:04:52.250Z,11.58
2022-11-06T05:05:27.016Z,11.58
2022-11-06T05:05:59.238Z,11.58
2022-11-06T05:06:32.716Z,11.57
2022-11-06T05:07:05.806Z,11.58
2022-11-06T05:07:38.034Z,11.58
2022-11-06T05:08:15.936Z,11.58
2022-11-06T05:08:48.135Z,11.57
2022-11-06T05:09:20.601Z,11.58
2022-11-06T05:09:52.709Z,11.57
2022-11-06T05:10:24.529Z,11.57
2022-11-06T05:10:56.603Z,11.56
2022-11-06T05:11:28.632Z,11.56
2022-11-06T05:12:00.437Z,11.56
2022-11-06T05:12:32.306Z,11.56
2022-11-06T05:13:04.158Z,11.56
2022-11-06T05:13:37.837Z,11.56
2022-11-06T05:14:09.774Z,11.55
2022-11-06T05:14:41.781Z,11.55
2022-11-06T05:15:13.839Z,11.56
2022-11-06T05:15:45.668Z,11.55
2022-11-06T05:16:17.572Z,11.54
2022-11-06T05:16:49.309Z,11.56
2022-11-06T05:17:21.610Z,11.55
2022-11-06T05:17:53.590Z,11.55
2022-11-06T05:18:26.830Z,11.54
2022-11-06T05:18:58.749Z,11.55
2022-11-06T05:19:30.725Z,11.55
2022-11-06T05:20:02.719Z,11.54
2022-11-06T05:20:34.707Z,11.55
2022-11-06T05:21:25.408Z,11.55
2022-11-06T05:22:15.850Z,11.54
2022-11-06T05:23:02.732Z,11.53
2022-11-06T05:23:34.609Z,11.54
2022-11-06T05:24:06.852Z,11.54
2022-11-06T05:24:38.953Z,11.54
2022-11-06T05:25:10.759Z,11.55
2022-11-06T05:25:42.966Z,11.55
2022-11-06T05:26:14.715Z,11.55
2022-11-06T05:26:46.590Z,11.54
2022-11-06T05:27:18.489Z,11.54
2022-11-06T05:27:50.644Z,11.53
2022-11-06T05:28:22.689Z,11.54
2022-11-06T05:28:54.651Z,11.54
2022-11-06T05:29:27.395Z,11.54
2022-11-06T05:29:59.456Z,11.54
2022-11-06T05:30:31.359Z,11.54
2022-11-06T05:31:03.334Z,11.54
2022-11-06T05:31:35.464Z,11.54
2022-11-06T05:32:07.414Z,11.54
2022-11-06T05:32:39.413Z,11.54
2022-11-06T05:33:11.252Z,11.54
2022-11-06T05:33:43.102Z,11.54
2022-11-06T05:34:14.931Z,11.54
2022-11-06T05:34:46.752Z,11.54
2022-11-06T05:35:20.280Z,11.53
2022-11-06T05:35:52.428Z,11.54
2022-11-06T05:36:24.303Z,11.54
2022-11-06T05:36:56.929Z,11.53
2022-11-06T05:37:28.638Z,11.53
2022-11-06T05:38:02.046Z,11.54
2022-11-06T05:38:34.150Z,11.54
2022-11-06T05:39:06.136Z,11.54
2022-11-06T05:39:41.856Z,11.53
2022-11-06T05:40:14.604Z,11.53
2022-11-06T05:40:46.507Z,11.53
2022-11-06T05:41:18.416Z,11.54
2022-11-06T05:41:50.469Z,11.54
2022-11-06T05:42:22.508Z,11.54
2022-11-06T05:42:54.359Z,11.53
2022-11-06T05:43:26.354Z,11.54
2022-11-06T05:43:58.331Z,11.54
2022-11-06T05:44:30.190Z,11.55
2022-11-06T05:45:02.037Z,11.54
2022-11-06T05:45:34.025Z,11.54
2022-11-06T05:46:08.999Z,11.54
2022-11-06T05:46:49.562Z,11.55
2022-11-06T05:47:22.086Z,11.54
2022-11-06T05:47:53.969Z,11.53
2022-11-06T05:48:26.935Z,11.54
2022-11-06T05:48:58.813Z,11.54
2022-11-06T05:49:30.653Z,11.53
2022-11-06T05:50:02.763Z,11.53
2022-11-06T05:50:34.544Z,11.53
2022-11-06T05:51:07.310Z,11.53
2022-11-06T05:51:39.388Z,11.52
2022-11-06T05:52:11.513Z,11.52
2022-11-06T05:52:43.353Z,11.53
2022-11-06T05:53:16.572Z,11.52
2022-11-06T05:53:48.527Z,11.52
2022-11-06T05:54:20.322Z,11.51
2022-11-06T05:54:52.124Z,11.51
2022-11-06T05:55:24.081Z,11.50
2022-11-06T05:55:55.939Z,11.51
2022-11-06T05:56:27.938Z,11.51
2022-11-06T05:56:59.692Z,11.51
2022-11-06T05:57:31.776Z,11.51
2022-11-06T05:58:03.767Z,11.51
2022-11-06T05:58:35.559Z,11.51
2022-11-06T05:59:07.456Z,11.51
2022-11-06T05:59:39.391Z,11.51
2022-11-06T06:00:12.270Z,11.51
2022-11-06T06:00:44.154Z,11.50
2022-11-06T06:01:16.333Z,11.50
2022-11-06T06:01:48.299Z,11.50
2022-11-06T06:02:20.387Z,11.49
2022-11-06T06:02:52.332Z,11.49
2022-11-06T06:03:25.185Z,11.49
2022-11-06T06:03:57.117Z,11.48
2022-11-06T06:04:28.967Z,11.48
2022-11-06T06:05:00.912Z,11.48
2022-11-06T06:05:32.763Z,11.48
2022-11-06T06:06:04.980Z,11.48
2022-11-06T06:06:37.176Z,11.48
2022-11-06T06:07:09.031Z,11.48
2022-11-06T06:07:41.161Z,11.48
2022-11-06T06:08:13.550Z,11.48
2022-11-06T06:08:45.629Z,11.48
2022-11-06T06:09:17.524Z,11.48
2022-11-06T06:09:49.467Z,11.48
2022-11-06T06:10:21.333Z,11.48
2022-11-06T06:10:53.141Z,11.49
2022-11-06T06:11:25.023Z,11.48
2022-11-06T06:11:56.895Z,11.48
2022-11-06T06:12:29.004Z,11.48
2022-11-06T06:13:00.950Z,11.48
2022-11-06T06:13:32.853Z,11.48
2022-11-06T06:14:04.813Z,11.48
2022-11-06T06:14:36.944Z,11.48
2022-11-06T06:15:09.231Z,11.48
2022-11-06T06:15:42.751Z,11.48
2022-11-06T06:16:15.497Z,11.48
2022-11-06T06:16:47.705Z,11.48
2022-11-06T06:17:20.459Z,11.47
2022-11-06T06:17:52.376Z,11.47
2022-11-06T06:18:24.273Z,11.47
2022-11-06T06:18:56.259Z,11.48
2022-11-06T06:19:28.086Z,11.48
2022-11-06T06:19:59.848Z,11.48
2022-11-06T06:20:31.919Z,11.49
2022-11-06T06:21:03.894Z,11.49
2022-11-06T06:21:36.702Z,11.49
2022-11-06T06:22:09.354Z,11.49
2022-11-06T06:22:41.480Z,11.50
2022-11-06T06:23:13.614Z,11.50
2022-11-06T06:23:45.862Z,11.50
2022-11-06T06:24:17.745Z,11.50
2022-11-06T06:24:49.587Z,11.51
2022-11-06T06:25:23.227Z,11.51
2022-11-06T06:25:56.732Z,11.51
2022-11-06T06:26:28.731Z,11.51
2022-11-06T06:27:01.631Z,11.52
2022-11-06T06:27:34.017Z,11.52
2022-11-06T06:28:05.867Z,11.52
2022-11-06T06:28:37.722Z,11.53
2022-11-06T06:29:09.677Z,11.53
2022-11-06T06:29:41.481Z,11.53
2022-11-06T06:30:13.464Z,11.53
2022-11-06T06:30:45.786Z,11.53
2022-11-06T06:31:17.666Z,11.54
2022-11-06T06:31:49.626Z,11.54
2022-11-06T06:32:21.572Z,11.54
2022-11-06T06:32:53.829Z,11.54
2022-11-06T06:33:25.680Z,11.54
2022-11-06T06:33:57.553Z,11.54
2022-11-06T06:34:29.442Z,11.54
2022-11-06T06:35:02.009Z,11.54
2022-11-06T06:35:34.401Z,11.54
2022-11-06T06:36:07.120Z,11.54
2022-11-06T06:36:39.074Z,11.54
2022-11-06T06:37:10.970Z,11.54
2022-11-06T06:37:43.431Z,11.53
2022-11-06T06:38:16.428Z,11.54
2022-11-06T06:38:49.051Z,11.54
2022-11-06T06:39:21.244Z,11.54
2022-11-06T06:39:53.290Z,11.54
2022-11-06T06:40:26.337Z,11.54
2022-11-06T06:41:06.040Z,11.54
2022-11-06T06:41:37.980Z,11.54
2022-11-06T06:42:09.922Z,11.54
2022-11-06T06:42:41.856Z,11.55
2022-11-06T06:43:13.944Z,11.55
2022-11-06T06:43:48.027Z,11.55
2022-11-06T06:44:19.881Z,11.56
2022-11-06T06:44:51.755Z,11.56
2022-11-06T06:45:25.105Z,11.57
2022-11-06T06:46:01.608Z,11.57
2022-11-06T06:46:33.494Z,11.56
2022-11-06T06:47:05.317Z,11.57
2022-11-06T06:47:37.211Z,11.57
2022-11-06T06:48:09.275Z,11.58
2022-11-06T06:48:41.047Z,11.59
2022-11-06T06:49:12.783Z,11.59
2022-11-06T06:49:45.037Z,11.59
2022-11-06T06:50:16.982Z,11.60
2022-11-06T06:50:48.730Z,11.60
2022-11-06T06:51:23.930Z,11.61
2022-11-06T06:51:56.362Z,11.60
2022-11-06T06:52:28.265Z,11.61
2022-11-06T06:53:00.891Z,11.61
2022-11-06T06:53:32.948Z,11.62
2022-11-06T06:54:04.893Z,11.62
2022-11-06T06:54:36.862Z,11.62
2022-11-06T06:55:08.948Z,11.63
2022-11-06T06:55:41.553Z,11.64
2022-11-06T06:56:13.500Z,11.64
2022-11-06T06:56:47.209Z,11.65
2022-11-06T06:57:19.081Z,11.66
2022-11-06T06:57:58.644Z,11.66
2022-11-06T06:58:31.430Z,11.66
2022-11-06T06:59:03.569Z,11.68
2022-11-06T06:59:36.004Z,11.68
2022-11-06T07:00:08.705Z,11.68
2022-11-06T07:00:40.882Z,11.69
2022-11-06T07:01:13.535Z,11.69
2022-11-06T07:01:45.659Z,11.68
2022-11-06T07:02:17.967Z,11.69
2022-11-06T07:02:50.387Z,11.69
2022-11-06T07:03:22.392Z,11.69
2022-11-06T07:03:55.266Z,11.69
2022-11-06T07:04:29.608Z,11.68
2022-11-06T07:05:01.535Z,11.68
2022-11-06T07:05:33.511Z,11.68
2022-11-06T07:06:06.701Z,11.68
2022-11-06T07:06:38.432Z,11.68
2022-11-06T07:07:10.254Z,11.67
2022-11-06T07:07:42.311Z,11.67
2022-11-06T07:08:14.320Z,11.67
2022-11-06T07:08:46.604Z,11.66
2022-11-06T07:09:18.553Z,11.65
2022-11-06T07:09:51.807Z,11.65
2022-11-06T07:10:23.605Z,11.64
2022-11-06T07:11:08.487Z,11.64
2022-11-06T07:11:40.623Z,11.63
2022-11-06T07:12:12.533Z,11.64
2022-11-06T07:12:44.838Z,11.64
2022-11-06T07:13:16.883Z,11.63
2022-11-06T07:13:48.899Z,11.64
2022-11-06T07:14:20.667Z,11.64
2022-11-06T07:14:52.405Z,11.64
2022-11-06T07:15:24.242Z,11.65
2022-11-06T07:15:56.113Z,11.64
2022-11-06T07:16:29.531Z,11.65
2022-11-06T07:17:01.352Z,11.65
2022-11-06T07:17:33.218Z,11.65
2022-11-06T07:18:06.537Z,11.65
2022-11-06T07:18:39.803Z,11.65
2022-11-06T07:19:11.797Z,11.65
2022-11-06T07:19:43.716Z,11.65
2022-11-06T07:20:15.723Z,11.66
2022-11-06T07:20:47.799Z,11.66
2022-11-06T07:21:19.798Z,11.66
2022-11-06T07:21:52.599Z,11.67
2022-11-06T07:22:33.690Z,11.67
2022-11-06T07:23:09.124Z,11.67
2022-11-06T07:23:41.323Z,11.68
2022-11-06T07:24:13.209Z,11.68
2022-11-06T07:24:45.050Z,11.68
2022-11-06T07:25:17.116Z,11.68
2022-11-06T07:25:54.881Z,11.68
2022-11-06T07:26:26.783Z,11.68
2022-11-06T07:26:58.744Z,11.68
2022-11-06T07:27:30.619Z,11.68
2022-11-06T07:28:06.760Z,11.68
2022-11-06T07:28:39.008Z,11.69
2022-11-06T07:29:11.031Z,11.69
2022-11-06T07:29:42.929Z,11.69
2022-11-06T07:30:15.206Z,11.69
2022-11-06T07:30:47.040Z,11.71
2022-11-06T07:31:18.894Z,11.71
2022-11-06T07:31:50.806Z,11.72
2022-11-06T07:32:22.720Z,11.73
2022-11-06T07:32:54.535Z,11.73
2022-11-06T07:33:26.902Z,11.73
2022-11-06T07:33:58.693Z,11.74
2022-11-06T07:34:30.478Z,11.74
2022-11-06T07:35:02.892Z,11.75
2022-11-06T07:35:35.194Z,11.74
2022-11-06T07:36:12.450Z,11.75
2022-11-06T07:36:44.482Z,11.75
2022-11-06T07:37:16.518Z,11.76
2022-11-06T07:37:48.446Z,11.76
2022-11-06T07:38:20.465Z,11.76
2022-11-06T07:38:52.332Z,11.77
2022-11-06T07:39:24.348Z,11.77
2022-11-06T07:39:56.164Z,11.77
2022-11-06T07:40:28.158Z,11.77
2022-11-06T07:41:26.418Z,11.78
2022-11-06T07:41:58.230Z,11.78
2022-11-06T07:42:30.133Z,11.78
2022-11-06T07:43:09.669Z,11.80
2022-11-06T07:43:42.671Z,11.80
2022-11-06T07:44:14.465Z,11.80
2022-11-06T07:44:46.318Z,11.81
2022-11-06T07:45:18.508Z,11.82
2022-11-06T07:45:50.426Z,11.82
2022-11-06T07:46:22.329Z,11.83
2022-11-06T07:46:54.411Z,11.82
2022-11-06T07:47:27.409Z,11.82
2022-11-06T07:47:59.687Z,11.82
2022-11-06T07:48:31.528Z,11.82
2022-11-06T07:49:03.347Z,11.82